sensor_id;sensor_type;location;lat;lon;timestamp;temperature;humidity
5930;DHT22;2990;48.746;9.236;2022-11-03T08:31:34;8.60;1.00
5930;DHT22;2990;48.746;9.236;2022-11-03T08:34:00;8.70;1.00
5930;DHT22;2990;48.746;9.236;2022-11-03T08:36:26;8.70;1.00
5930;DHT22;2990;48.746;9.236;2022-11-03T08:38:51;8.70;1.00
5930;DHT22;2990;48.746;9.236;2022-11-03T08:41:17;8.80;1.00
5930;DHT22;2990;48.746;9.236;2022-11-03T08:43:43;8.80;1.00
5930;DHT22;2990;48.746;9.236;2022-11-03T08:46:08;8.90;1.00
5930;DHT22;2990;48.746;9.236;2022-11-03T08:48:34;9.00;1.00
5930;DHT22;2990;48.746;9.236;2022-11-03T08:51:00;9.10;1.00
5930;DHT22;2990;48.746;9.236;2022-11-03T08:53:26;9.20;99.90
5930;DHT22;2990;48.746;9.236;2022-11-03T08:55:53;9.30;99.90
5930;DHT22;2990;48.746;9.236;2022-11-03T08:58:20;9.40;99.90
5930;DHT22;2990;48.746;9.236;2022-11-03T09:00:48;9.50;99.90
5930;DHT22;2990;48.746;9.236;2022-11-03T09:03:14;9.60;99.90
5930;DHT22;2990;48.746;9.236;2022-11-03T09:05:40;9.70;58.90
5930;DHT22;2990;48.746;9.236;2022-11-03T09:08:06;9.70;46.40
5930;DHT22;2990;48.746;9.236;2022-11-03T09:10:33;9.80;39.10
5930;DHT22;2990;48.746;9.236;2022-11-03T09:12:59;9.90;1.00
5930;DHT22;2990;48.746;9.236;2022-11-03T09:15:25;9.90;1.00
5930;DHT22;2990;48.746;9.236;2022-11-03T09:17:51;10.10;1.00
5930;DHT22;2990;48.746;9.236;2022-11-03T09:20:17;10.10;1.00
5930;DHT22;2990;48.746;9.236;2022-11-03T09:22:43;10.30;97.40
5930;DHT22;2990;48.746;9.236;2022-11-03T09:25:10;10.40;1.00
5930;DHT22;2990;48.746;9.236;2022-11-03T09:27:35;10.50;99.90
5930;DHT22;2990;48.746;9.236;2022-11-03T09:30:02;10.40;1.00
5930;DHT22;2990;48.746;9.236;2022-11-03T09:32:27;10.40;83.10
5930;DHT22;2990;48.746;9.236;2022-11-03T09:34:53;10.50;99.90
5930;DHT22;2990;48.746;9.236;2022-11-03T09:37:19;10.60;99.90
5930;DHT22;2990;48.746;9.236;2022-11-03T09:39:44;10.70;99.90
5930;DHT22;2990;48.746;9.236;2022-11-03T09:42:11;10.60;1.00
5930;DHT22;2990;48.746;9.236;2022-11-03T09:44:37;10.80;99.90
5930;DHT22;2990;48.746;9.236;2022-11-03T09:47:04;10.90;99.90
5930;DHT22;2990;48.746;9.236;2022-11-03T09:49:31;11.00;1.00
5930;DHT22;2990;48.746;9.236;2022-11-03T09:51:58;11.20;1.00
5930;DHT22;2990;48.746;9.236;2022-11-03T09:54:26;11.10;1.00
5930;DHT22;2990;48.746;9.236;2022-11-03T09:56:52;11.30;1.00
5930;DHT22;2990;48.746;9.236;2022-11-03T09:59:20;11.20;1.00
5930;DHT22;2990;48.746;9.236;2022-11-03T10:01:48;11.30;1.00
5930;DHT22;2990;48.746;9.236;2022-11-03T10:04:15;11.30;99.90
5930;DHT22;2990;48.746;9.236;2022-11-03T10:06:42;11.30;1.00
5930;DHT22;2990;48.746;9.236;2022-11-03T10:09:15;11.30;62.10
5930;DHT22;2990;48.746;9.236;2022-11-03T10:11:43;11.30;99.90
5930;DHT22;2990;48.746;9.236;2022-11-03T10:14:13;11.30;1.00
5930;DHT22;2990;48.746;9.236;2022-11-03T10:16:41;11.20;1.00
5930;DHT22;2990;48.746;9.236;2022-11-03T10:19:12;11.20;1.00
5930;DHT22;2990;48.746;9.236;2022-11-03T10:21:40;11.10;99.90
5930;DHT22;2990;48.746;9.236;2022-11-03T10:24:10;11.10;1.00
5930;DHT22;2990;48.746;9.236;2022-11-03T10:26:48;11.00;99.90
5930;DHT22;2990;48.746;9.236;2022-11-03T10:29:19;11.10;1.00
5930;DHT22;2990;48.746;9.236;2022-11-03T10:31:50;11.10;99.90
5930;DHT22;2990;48.746;9.236;2022-11-03T10:39:34;11.20;1.00
5930;DHT22;2990;48.746;9.236;2022-11-03T10:41:59;11.10;1.00
5930;DHT22;2990;48.746;9.236;2022-11-03T10:44:26;11.10;1.00
5930;DHT22;2990;48.746;9.236;2022-11-03T10:47:01;11.10;99.90
5930;DHT22;2990;48.746;9.236;2022-11-03T10:49:31;11.00;99.90
5930;DHT22;2990;48.746;9.236;2022-11-03T10:54:41;11.10;99.90
5930;DHT22;2990;48.746;9.236;2022-11-03T10:57:07;11.00;99.90
5930;DHT22;2990;48.746;9.236;2022-11-03T10:59:35;11.00;99.90
5930;DHT22;2990;48.746;9.236;2022-11-03T11:02:43;11.00;1.00
5930;DHT22;2990;48.746;9.236;2022-11-03T11:05:16;11.20;1.00
5930;DHT22;2990;48.746;9.236;2022-11-03T11:07:43;11.30;99.90
5930;DHT22;2990;48.746;9.236;2022-11-03T11:13:25;11.50;1.00
5930;DHT22;2990;48.746;9.236;2022-11-03T11:15:59;11.50;1.00
5930;DHT22;2990;48.746;9.236;2022-11-03T11:20:58;11.50;99.90
5930;DHT22;2990;48.746;9.236;2022-11-03T11:28:43;11.50;1.00
5930;DHT22;2990;48.746;9.236;2022-11-03T11:31:28;11.40;1.00
5930;DHT22;2990;48.746;9.236;2022-11-03T11:44:50;11.50;99.90
5930;DHT22;2990;48.746;9.236;2022-11-03T11:47:32;11.50;99.90
5930;DHT22;2990;48.746;9.236;2022-11-03T11:50:18;11.50;99.90
5930;DHT22;2990;48.746;9.236;2022-11-03T11:55:31;11.60;99.90
5930;DHT22;2990;48.746;9.236;2022-11-03T11:57:59;11.60;1.00
5930;DHT22;2990;48.746;9.236;2022-11-03T12:00:29;11.60;99.90
5930;DHT22;2990;48.746;9.236;2022-11-03T12:03:17;11.60;99.90
5930;DHT22;2990;48.746;9.236;2022-11-03T12:06:00;11.60;1.00
5930;DHT22;2990;48.746;9.236;2022-11-03T12:08:35;11.60;1.00
5930;DHT22;2990;48.746;9.236;2022-11-03T12:11:06;11.60;99.90
5930;DHT22;2990;48.746;9.236;2022-11-03T12:16:26;11.60;99.90
5930;DHT22;2990;48.746;9.236;2022-11-03T12:18:56;11.50;1.00
5930;DHT22;2990;48.746;9.236;2022-11-03T12:24:46;11.50;99.90
